Latest Weather Observations for Southern Cross Airport

IDW60801

Issued at 4:40 pm WST Sunday 1 February 2015 (issued every 30 minutes, with the page automatically refreshed every 10 minutes)

About weather observations | Map of weather stations | Latest weather observations for WA | Other Formats
Station Details ID: 012320 Name: SOUTHERN CROSS AIRFIELD Lat: -31.24 Lon: 119.36 Height: 347.4 m
Data from the previous 72 hours. | See also: Recent months at Southern Cross Airport
Date/Time
WST
Temp
°C
App
Temp
°C
Dew
Point
Rel
Hum
%
Delta-T
°C
Wind Press
QNH
hPa
Press
MSL
hPa
Rain
since 9 am
mm
Dir
 
Spd
km/h
Gust
km/h
Spd
kts
Gust
kts
01/04:30pm 28.0 22.0 8.8 30 10.7 E 30 41 16 22 1014.9 1012.8 0.0
01/04:00pm 28.8 23.8 9.5 30 10.9 E 26 37 14 20 1015.3 1013.3 0.0
01/03:30pm 27.4 22.2 8.8 31 10.3 E 26 41 14 22 1015.6 1013.6 0.0
01/03:00pm 26.5 21.8 9.4 34 9.5 E 24 35 13 19 1015.9 1013.9 0.0
01/02:30pm 26.0 21.0 9.4 35 9.2 E 26 35 14 19 1016.1 1014.1 0.0
01/02:00pm 25.3 20.7 9.6 37 8.7 E 24 32 13 17 1016.3 1014.3 0.0
01/01:30pm 25.3 20.7 9.6 37 8.7 E 24 39 13 21 1016.6 1014.6 0.0
01/01:00pm 25.2 19.9 9.9 38 8.6 ENE 28 39 15 21 1016.6 1014.6 0.0
01/12:30pm 25.2 20.0 10.3 39 8.4 E 28 39 15 21 1016.9 1014.9 0.0
01/12:00pm 25.2 19.1 9.9 38 8.6 ENE 32 41 17 22 1017.0 1015.0 0.0
01/11:30am 25.6 20.7 9.8 37 8.8 E 26 41 14 22 1016.8 1014.8 0.0
01/11:00am 24.7 19.6 10.6 41 8.0 E 28 39 15 21 1017.3 1015.3 0.0
01/10:30am 23.0 17.8 10.4 45 7.0 E 28 39 15 21 1017.5 1015.5 0.0
01/10:00am 22.1 17.8 10.6 48 6.4 E 24 33 13 18 1018.1 1016.1 0.0
01/09:30am 21.7 16.6 10.5 49 6.2 ENE 28 37 15 20 1018.4 1016.4 0.0
01/09:00am 20.7 16.8 10.8 53 5.5 E 22 30 12 16 1018.7 1016.7 0.0
01/08:30am 19.8 15.4 10.5 55 5.1 E 24 32 13 17 1018.3 1016.3 0.0
01/08:00am 19.8 15.3 10.2 54 5.2 ENE 24 32 13 17 1018.5 1016.5 0.0
01/07:30am 19.8 15.8 10.5 55 5.1 E 22 33 12 18 1018.2 1016.1 0.0
01/07:00am 19.2 15.9 11.5 61 4.3 E 20 33 11 18 1017.9 1015.8 0.0
01/06:30am 19.7 15.2 10.1 54 5.2 ESE 24 32 13 17 1016.7 1014.7 0.0
01/06:00am 20.1 16.9 9.9 52 5.6 ESE 17 28 9 15 1016.4 1014.3 0.0
01/05:30am 20.4 15.9 9.9 51 5.7 E 24 32 13 17 1016.1 1014.0 0.0
01/05:00am 20.9 17.3 9.8 49 6.1 ESE 19 26 10 14 1015.8 1013.7 0.0
01/04:30am 21.4 17.6 9.9 48 6.3 E 20 32 11 17 1015.1 1013.0 0.0
01/04:00am 21.7 16.8 9.9 47 6.5 E 26 37 14 20 1014.7 1012.6 0.0
01/03:30am 22.2 17.6 9.7 45 6.9 ESE 24 32 13 17 1014.4 1012.4 0.0
01/03:00am 22.7 18.1 9.5 43 7.2 E 24 33 13 18 1014.5 1012.5 0.0
01/02:30am 22.9 19.4 8.6 40 7.7 ESE 17 22 9 12 1014.9 1012.8 0.0
01/02:00am 23.0 19.8 8.3 39 7.9 ESE 15 22 8 12 1014.5 1012.5 0.0
01/01:30am 23.0 19.4 8.3 39 7.9 ESE 17 22 9 12 1014.2 1012.2 0.0
01/01:00am 22.9 19.1 7.4 37 8.2 ESE 17 24 9 13 1014.2 1012.2 0.0
01/12:30am 23.1 19.6 7.2 36 8.4 ESE 15 20 8 11 1014.4 1012.4 0.0
01/12:00am 23.7 20.1 6.9 34 8.8 ESE 15 19 8 10 1014.5 1012.5 0.0
 
Date/Time
WST
Temp
°C
App
Temp
°C
Dew
Point
Rel
Hum
%
Delta-T
°C
Wind Press
QNH
hPa
Press
MSL
hPa
Rain
since 9 am
mm
Dir
 
Spd
km/h
Gust
km/h
Spd
kts
Gust
kts
31/11:30pm 24.1 20.1 6.8 33 9.1 ESE 17 20 9 11 1014.8 1012.7 0.0
31/11:00pm 24.5 20.1 6.7 32 9.4 ESE 19 28 10 15 1014.9 1012.8 0.0
31/10:30pm 24.9 21.0 7.1 32 9.5 ESE 17 24 9 13 1015.2 1013.1 0.0
31/10:00pm 25.1 20.8 6.8 31 9.7 ESE 19 24 10 13 1015.3 1013.2 0.0
31/09:30pm 25.5 21.1 6.7 30 10.0 ESE 19 24 10 13 1015.5 1013.4 0.0
31/09:00pm 25.7 21.7 6.8 30 10.0 ESE 17 22 9 12 1015.8 1013.7 0.0
31/08:30pm 25.9 22.1 7.5 31 9.9 ESE 17 24 9 13 1015.9 1013.8 0.0
31/08:00pm 26.1 22.0 7.7 31 10.0 ESE 19 26 10 14 1015.8 1013.7 0.0
31/07:30pm 26.3 22.0 7.8 31 10.0 ESE 20 30 11 16 1015.5 1013.4 0.0
31/07:00pm 26.6 22.2 7.6 30 10.3 ESE 20 30 11 16 1015.3 1013.2 0.0
31/06:30pm 26.9 22.5 7.4 29 10.6 E 20 28 11 15 1015.3 1013.2 0.0
31/06:00pm 27.2 22.8 7.6 29 10.7 E 20 26 11 14 1015.0 1012.9 0.0
31/05:30pm 27.5 23.1 7.4 28 10.9 E 20 30 11 16 1014.7 1012.6 0.0
31/05:00pm 27.5 23.1 7.4 28 10.9 E 20 28 11 15 1014.8 1012.7 0.0
31/04:30pm 27.7 22.6 7.5 28 11.0 E 24 33 13 18 1014.8 1012.7 0.0
31/04:00pm 28.2 23.4 7.4 27 11.3 ESE 22 32 12 17 1014.8 1012.7 0.0
31/03:30pm 29.1 24.7 7.6 26 11.8 E 20 32 11 17 1014.9 1012.8 0.0
31/03:00pm 29.2 24.6 6.6 24 12.2 E 20 32 11 17 1014.8 1012.7 0.0
31/02:30pm 29.0 24.1 7.0 25 12.0 E 22 30 12 16 1014.8 1012.7 0.0
31/02:00pm 28.5 23.4 6.0 24 12.0 E 22 30 12 16 1015.0 1012.9 0.0
31/01:30pm 28.1 22.8 6.8 26 11.5 ESE 24 32 13 17 1015.2 1013.1 0.0
31/01:00pm 27.6 22.2 6.4 26 11.3 E 24 35 13 19 1015.4 1013.3 0.0
31/12:30pm 27.2 21.9 6.6 27 11.0 ESE 24 37 13 20 1015.5 1013.4 0.0
31/12:00pm 27.4 22.3 7.8 29 10.7 ESE 24 35 13 19 1015.4 1013.3 0.0
31/11:30am 27.0 21.7 8.4 31 10.2 E 26 35 14 19 1015.5 1013.4 0.0
31/11:00am 26.6 21.8 9.0 33 9.8 E 24 35 13 19 1015.8 1013.7 0.0
31/10:30am 24.9 19.8 9.2 37 8.7 E 26 37 14 20 1016.0 1013.9 0.0
31/10:00am 24.1 19.1 9.7 40 8.0 E 26 35 14 19 1016.3 1014.2 0.0
31/09:30am 23.1 18.5 9.8 43 7.4 ESE 24 37 13 20 1016.6 1014.6 0.0
31/09:00am 21.8 17.3 10.0 47 6.5 ESE 24 30 13 16 1016.9 1014.9 0.0
31/08:30am 20.4 16.0 10.5 53 5.5 ESE 24 35 13 19 1017.2 1015.2 0.0
31/08:00am 19.2 15.3 10.7 58 4.7 E 22 35 12 19 1017.4 1015.4 0.0
31/07:30am 18.8 14.5 10.9 60 4.4 E 24 33 13 18 1017.4 1015.4 0.0
31/07:00am 18.7 14.6 11.5 63 4.0 ESE 24 35 13 19 1017.3 1015.3 0.0
31/06:30am 18.0 13.9 11.3 65 3.7 E 24 39 13 21 1017.4 1015.4 0.0
31/06:00am 18.0 14.2 11.1 64 3.8 ESE 22 33 12 18 1016.9 1014.9 0.0
31/05:30am 18.3 14.9 11.1 63 4.0 ESE 20 30 11 16 1016.4 1014.3 0.0
31/05:00am 18.2 14.7 11.0 63 4.0 ESE 20 30 11 16 1016.2 1014.1 0.0
31/04:30am 18.4 15.1 11.0 62 4.1 ESE 19 28 10 15 1016.1 1014.0 0.0
31/04:00am 18.7 14.1 11.0 61 4.2 SE 26 35 14 19 1015.6 1013.5 0.0
31/03:30am 19.0 14.0 10.8 59 4.5 SE 28 39 15 21 1015.3 1013.2 0.0
31/03:00am 19.3 12.9 10.6 57 4.8 SE 35 44 19 24 1014.8 1012.7 0.0
31/02:30am 19.6 13.7 10.3 55 5.1 SE 32 43 17 23 1014.8 1012.7 0.0
31/02:00am 20.0 14.0 10.1 53 5.4 SE 32 41 17 22 1014.9 1012.8 0.0
31/01:30am 20.6 14.5 10.4 52 5.6 SE 33 43 18 23 1014.5 1012.5 0.0
31/01:00am 21.6 16.1 10.4 49 6.2 SE 30 41 16 22 1014.7 1012.6 0.0
31/12:30am 22.3 15.8 10.5 47 6.6 SE 35 48 19 26 1014.3 1012.3 0.0
31/12:00am 23.2 17.3 10.3 44 7.2 SE 32 43 17 23 1014.2 1012.2 0.0
 
Date/Time
WST
Temp
°C
App
Temp
°C
Dew
Point
Rel
Hum
%
Delta-T
°C
Wind Press
QNH
hPa
Press
MSL
hPa
Rain
since 9 am
mm
Dir
 
Spd
km/h
Gust
km/h
Spd
kts
Gust
kts
30/11:30pm 23.9 17.5 9.5 40 8.0 SE 33 41 18 22 1014.3 1012.3 0.0
30/11:00pm 24.9 18.4 8.8 36 8.8 SE 33 44 18 24 1014.2 1012.2 0.0
30/10:42pm 25.5 18.6 8.9 35 9.1 SE 35 54 19 29 1014.2 1012.2 0.0
30/10:30pm 25.9 18.1 8.4 33 9.6 SE 39 52 21 28 1014.2 1012.2 0.0
30/10:00pm 27.3 20.3 6.7 27 11.0 SE 33 43 18 23 1014.1 1012.1 0.0
30/09:30pm 28.5 21.4 3.4 20 12.8 ESE 30 41 16 22 1014.0 1012.0 0.0
30/09:00pm 29.1 21.9 3.1 19 13.2 SE 30 41 16 22 1013.8 1011.7 0.0
30/08:30pm 29.6 22.1 3.5 19 13.4 SE 32 41 17 22 1013.5 1011.4 0.0
30/08:00pm 30.2 22.7 3.3 18 13.8 SE 32 39 17 21 1013.1 1011.0 0.0
30/07:30pm 30.6 23.7 2.8 17 14.2 SE 28 39 15 21 1012.7 1010.6 0.0
30/07:00pm 31.4 24.8 4.2 18 14.3 ESE 28 43 15 23 1012.2 1010.1 0.0
30/06:30pm 32.0 24.6 3.9 17 14.7 ESE 32 44 17 24 1011.9 1009.8 0.0
30/06:00pm 33.0 25.7 4.7 17 15.1 SE 32 43 17 23 1011.3 1009.3 0.0
30/05:30pm 33.3 26.1 3.2 15 15.7 ESE 30 43 16 23 1010.8 1008.7 0.0
30/05:00pm 34.0 26.8 2.8 14 16.3 SE 30 43 16 23 1010.6 1008.5 0.0
30/04:30pm 33.7 27.4 3.5 15 15.9 SE 26 39 14 21 1010.7 1008.6 0.0
30/04:00pm 34.0 27.3 3.7 15 16.0 ESE 28 35 15 19 1011.0 1008.9 0.0
30/03:30pm 33.9 27.2 3.6 15 16.0 SE 28 39 15 21 1011.2 1009.1 0.0
30/03:00pm 34.3 28.6 3.0 14 16.4 ESE 22 33 12 18 1011.6 1009.5 0.0
30/02:30pm 34.4 28.7 3.1 14 16.4 ESE 22 37 12 20 1011.9 1009.8 0.0
30/02:00pm 34.8 28.8 3.4 14 16.6 SE 24 35 13 19 1012.2 1010.1 0.0
30/01:30pm 33.4 27.8 3.3 15 15.8 ESE 22 30 12 16 1012.5 1010.4 0.0
30/01:00pm 33.0 28.4 3.9 16 15.4 ESE 17 24 9 13 1012.6 1010.5 0.0
30/12:30pm 31.9 26.4 3.8 17 14.7 ESE 22 33 12 18 1012.7 1010.6 0.0
30/12:00pm 31.0 25.9 3.9 18 14.1 ESE 20 28 11 15 1013.0 1010.9 0.0
30/11:30am 31.2 25.7 4.1 18 14.2 E 22 28 12 15 1013.1 1011.0 0.0
30/11:00am 30.9 25.9 4.6 19 13.9 E 20 26 11 14 1013.3 1011.2 0.0
30/10:30am 30.3 25.4 4.1 19 13.7 E 19 28 10 15 1013.7 1011.6 0.0
30/10:00am 29.3 24.3 4.7 21 12.9 E 20 28 11 15 1013.8 1011.7 0.0
30/09:30am 28.4 23.7 5.3 23 12.2 ESE 19 28 10 15 1014.0 1012.0 0.0
30/09:00am 26.9 21.8 5.8 26 11.1 ESE 22 30 12 16 1013.9 1011.9 0.0
30/08:30am 26.3 21.7 5.8 27 10.8 ESE 19 26 10 14 1013.9 1011.9 0.0
30/08:00am 25.6 22.2 5.8 28 10.3 E 13 20 7 11 1014.0 1012.0 0.0
30/07:30am 25.5 22.2 6.2 29 10.1 ESE 13 22 7 12 1013.9 1011.9 0.0
30/07:00am 25.2 20.5 5.9 29 10.1 E 20 32 11 17 1013.1 1011.0 0.0
30/06:30am 25.0 19.6 6.2 30 9.9 E 24 35 13 19 1012.9 1010.8 0.0
30/06:00am 25.1 19.0 6.8 31 9.7 E 28 35 15 19 1012.4 1010.3 0.0
30/05:30am 25.3 19.0 7.4 32 9.6 E 30 41 16 22 1012.1 1010.0 0.0
30/05:00am 25.5 20.2 8.5 34 9.3 E 26 35 14 19 1011.7 1009.6 0.0
30/04:30am 25.6 20.8 9.0 35 9.2 ESE 24 35 13 19 1011.4 1009.4 0.0
30/04:00am 25.9 21.2 9.3 35 9.2 ESE 24 37 13 20 1011.1 1009.0 0.0
30/03:30am 26.2 21.7 8.7 33 9.6 ESE 22 33 12 18 1011.1 1009.0 0.0
30/03:00am 26.8 21.2 7.3 29 10.5 ESE 26 37 14 20 1010.9 1008.8 0.0
30/02:30am 27.2 21.7 6.0 26 11.2 ESE 24 35 13 19 1010.7 1008.6 0.0
30/02:00am 27.7 22.7 4.7 23 11.9 ESE 20 33 11 18 1010.7 1008.6 0.0
30/01:30am 27.8 22.2 3.5 21 12.4 ESE 22 32 12 17 1010.6 1008.5 0.0
30/01:00am 28.0 22.1 3.7 21 12.4 ESE 24 35 13 19 1010.4 1008.3 0.0
30/12:30am 28.2 22.9 3.1 20 12.7 ESE 20 28 11 15 1010.6 1008.5 0.0
30/12:00am 28.6 22.2 1.2 17 13.5 SE 24 33 13 18 1010.8 1008.7 0.0
 
Date/Time
WST
Temp
°C
App
Temp
°C
Dew
Point
Rel
Hum
%
Delta-T
°C
Wind Press
QNH
hPa
Press
MSL
hPa
Rain
since 9 am
mm
Dir
 
Spd
km/h
Gust
km/h
Spd
kts
Gust
kts
29/11:30pm 29.2 21.9 -0.1 15 14.1 SE 28 33 15 18 1010.7 1008.6 0.0
29/11:00pm 30.3 23.4 -0.1 14 14.8 SE 26 32 14 17 1010.5 1008.4 0.0
29/10:30pm 31.7 25.1 -0.1 13 15.6 SE 24 32 13 17 1010.5 1008.4 0.0
29/10:00pm 32.4 26.9 0.5 13 15.9 SE 19 26 10 14 1010.3 1008.2 0.0
29/09:30pm 33.2 28.2 1.1 13 16.2 ESE 17 22 9 12 1009.9 1007.8 0.0
29/09:00pm 33.6 28.2 1.4 13 16.4 ESE 19 26 10 14 1009.5 1007.4 0.0
29/08:30pm 34.1 28.4 0.7 12 16.8 ESE 20 28 11 15 1009.0 1006.9 0.0
29/08:00pm 34.5 28.9 1.0 12 17.1 SE 20 28 11 15 1008.8 1006.7 0.0
29/07:30pm 35.3 28.4 0.4 11 17.6 SE 26 32 14 17 1008.3 1006.2 0.0
29/07:00pm 35.6 31.0 -0.7 10 18.1 SSE 13 15 7 8 1007.9 1005.8 0.0
29/06:30pm 36.0 30.3 -0.4 10 18.3 SE 19 24 10 13 1007.6 1005.5 0.0
29/06:00pm 36.1 29.5 -0.3 10 18.3 SE 24 32 13 17 1007.2 1005.1 0.0
29/05:30pm 36.8 30.3 0.2 10 18.6 SE 24 33 13 18 1006.9 1004.8 0.0
29/05:00pm 36.9 31.2 0.3 10 18.7 SSE 20 28 11 15 1006.8 1004.7 0.0

Other Formats:

Comma delimited format used in spreadsheet applications
http://www.bom.gov.au/fwo/IDW60801/IDW60801.95634.axf

JavaScript Object Notation format (JSON) in row-major order
http://www.bom.gov.au/fwo/IDW60801/IDW60801.95634.json